Time;durP1;ratioP1;P1;durP2;ratioP2;P2;SDS_P1;SDS_P2;PMS_P1;PMS_P2;Temp;Humidity;BMP_temperature;BMP_pressure;BME280_temperature;BME280_humidity;BME280_pressure;Samples;Min_cycle;Max_cycle;Signal;HPM_P1;HPM_P2
2022/11/17 00:01:17;;;;;;;3.57;3.57;;;22.50;72.10;;;;;;5022997;28;20811;-57
2022/11/17 00:03:45;;;;;;;3.23;3.23;;;22.50;72.40;;;;;;5027458;28;20484;-58
2022/11/17 00:06:12;;;;;;;3.23;3.23;;;22.50;72.60;;;;;;5033820;28;20528;-58
2022/11/17 00:08:39;;;;;;;3.43;3.33;;;22.40;72.60;;;;;;5032137;28;20452;-57
2022/11/17 00:11:06;;;;;;;4.17;4.07;;;22.40;72.80;;;;;;5024202;28;21006;-59
2022/11/17 00:16:19;;;;;;;3.40;3.40;;;22.40;73.20;;;;;;5015800;28;20442;-59
2022/11/17 00:21:32;;;;;;;3.00;3.00;;;22.30;73.70;;;;;;5021858;28;20460;-58
2022/11/17 00:23:59;;;;;;;3.83;3.63;;;22.30;73.80;;;;;;5031723;28;21022;-59
2022/11/17 00:26:28;;;;;;;3.10;3.00;;;22.20;73.90;;;;;;5032912;28;20449;-55
2022/11/17 00:28:56;;;;;;;3.33;3.23;;;22.20;74.10;;;;;;5017968;28;20699;-60
2022/11/17 00:34:12;;;;;;;3.10;3.10;;;22.10;74.40;;;;;;5022379;28;20461;-57
2022/11/17 00:36:40;;;;;;;3.40;3.40;;;22.10;74.50;;;;;;5033246;28;20472;-58
2022/11/17 00:39:09;;;;;;;3.23;3.20;;;22.10;74.70;;;;;;5019572;28;20536;-59
2022/11/17 00:41:36;;;;;;;3.50;3.40;;;22.10;74.90;;;;;;5013580;28;20478;-58
2022/11/17 00:44:03;;;;;;;3.70;3.60;;;22.00;75.00;;;;;;5014268;28;20480;-58
2022/11/17 00:46:30;;;;;;;3.33;3.13;;;22.00;75.20;;;;;;4999506;28;21123;-59
2022/11/17 00:48:57;;;;;;;3.20;3.20;;;22.00;75.40;;;;;;5020982;28;21010;-58
2022/11/17 00:51:25;;;;;;;3.33;3.23;;;22.00;75.50;;;;;;5032964;28;20481;-59
2022/11/17 00:53:52;;;;;;;3.40;3.30;;;22.00;76.40;;;;;;5017947;28;20452;-55
2022/11/17 00:56:19;;;;;;;3.17;3.10;;;22.00;75.70;;;;;;5031637;28;20451;-59
2022/11/17 00:58:46;;;;;;;3.00;3.00;;;22.00;75.80;;;;;;5018814;28;20481;-59
2022/11/17 01:01:13;;;;;;;3.40;3.30;;;21.90;75.80;;;;;;5028626;28;20880;-57
2022/11/17 01:03:40;;;;;;;2.90;2.80;;;21.90;75.90;;;;;;5016210;28;20446;-59
2022/11/17 01:06:08;;;;;;;3.30;3.20;;;21.90;76.80;;;;;;5033035;28;20452;-60
2022/11/17 01:08:37;;;;;;;3.23;3.13;;;21.90;76.10;;;;;;5015938;28;20537;-60
2022/11/17 01:11:09;;;;;;;3.20;3.10;;;21.90;76.20;;;;;;5032942;28;20575;-60
2022/11/17 01:13:36;;;;;;;4.23;3.93;;;21.90;76.30;;;;;;5019977;28;20544;-58
2022/11/17 01:16:05;;;;;;;3.47;3.37;;;21.90;76.40;;;;;;5013237;28;20461;-59
2022/11/17 01:18:32;;;;;;;3.13;3.10;;;21.90;76.60;;;;;;5027741;28;20485;-59
2022/11/17 01:21:04;;;;;;;2.80;2.80;;;21.90;76.80;;;;;;5021009;28;20533;-58
2022/11/17 01:23:31;;;;;;;3.30;3.20;;;21.90;76.90;;;;;;5025194;28;20445;-55
2022/11/17 01:26:06;;;;;;;3.00;2.80;;;21.80;76.70;;;;;;5032496;28;20461;-59
2022/11/17 01:28:34;;;;;;;3.20;3.20;;;21.80;76.80;;;;;;5030308;28;20483;-56
2022/11/17 01:31:02;;;;;;;3.10;3.10;;;21.80;77.00;;;;;;5018377;28;20977;-59
2022/11/17 01:33:29;;;;;;;3.10;3.00;;;21.80;77.10;;;;;;5024642;28;20524;-61
2022/11/17 01:36:01;;;;;;;3.43;3.23;;;21.80;77.20;;;;;;5028769;28;20544;-59
2022/11/17 01:38:28;;;;;;;3.17;3.07;;;21.80;77.30;;;;;;5023522;28;20537;-59
2022/11/17 01:40:56;;;;;;;3.30;3.20;;;21.70;77.30;;;;;;5013704;28;20871;-60
2022/11/17 01:43:38;;;;;;;2.90;2.90;;;21.70;77.30;;;;;;5021758;28;20455;-59
2022/11/17 01:46:08;;;;;;;3.07;3.07;;;21.70;77.40;;;;;;5018974;28;20478;-59
2022/11/17 01:48:35;;;;;;;2.90;2.90;;;21.70;77.40;;;;;;5022331;28;20449;-57
2022/11/17 01:51:03;;;;;;;3.20;3.20;;;21.70;77.50;;;;;;5026460;28;20500;-59
2022/11/17 01:53:32;;;;;;;3.40;3.30;;;21.70;77.70;;;;;;5023606;28;20829;-61
2022/11/17 01:56:03;;;;;;;3.00;3.00;;;21.70;77.70;;;;;;5025673;28;20480;-58
2022/11/17 01:58:32;;;;;;;3.20;3.20;;;21.70;77.80;;;;;;5018818;28;20452;-59
2022/11/17 02:01:01;;;;;;;2.90;2.90;;;21.60;77.80;;;;;;5025571;28;20529;-58
2022/11/17 02:03:31;;;;;;;3.17;3.10;;;21.60;77.80;;;;;;5021944;28;20456;-60
2022/11/17 02:06:05;;;;;;;3.07;3.07;;;21.70;78.00;;;;;;5027779;28;20458;-59
2022/11/17 02:08:33;;;;;;;3.57;3.47;;;21.60;77.90;;;;;;5018851;28;20453;-58
2022/11/17 02:11:02;;;;;;;3.70;3.60;;;21.60;78.10;;;;;;5012121;28;20485;-60
2022/11/17 02:13:29;;;;;;;3.50;3.40;;;21.60;78.10;;;;;;5023786;28;20477;-61
2022/11/17 02:15:56;;;;;;;3.23;3.13;;;21.60;78.20;;;;;;5015614;28;20466;-59
2022/11/17 02:18:25;;;;;;;3.10;3.10;;;21.60;78.30;;;;;;5022766;28;20451;-57
2022/11/17 02:21:06;;;;;;;3.13;3.13;;;21.60;78.30;;;;;;5031680;28;20477;-59
2022/11/17 02:24:02;;;;;;;3.20;3.10;;;21.60;78.40;;;;;;5027452;28;20480;-60
2022/11/17 02:27:16;;;;;;;3.20;3.20;;;21.60;78.50;;;;;;4983449;28;20537;-59
2022/11/17 02:29:50;;;;;;;3.10;3.00;;;21.60;78.60;;;;;;5026298;28;20449;-60
2022/11/17 02:32:23;;;;;;;3.10;3.00;;;21.60;78.70;;;;;;5018860;28;20458;-60
2022/11/17 02:34:58;;;;;;;3.20;3.20;;;21.60;78.90;;;;;;5028749;28;20551;-60
2022/11/17 02:37:31;;;;;;;3.10;3.10;;;21.50;78.80;;;;;;5022465;28;20473;-57
2022/11/17 02:40:02;;;;;;;2.93;2.93;;;21.50;78.80;;;;;;5020286;28;20858;-60
2022/11/17 02:45:25;;;;;;;3.20;3.10;;;21.50;79.00;;;;;;5015934;28;20481;-60
2022/11/17 02:47:55;;;;;;;3.00;2.90;;;21.50;79.00;;;;;;5024907;28;20873;-60
2022/11/17 02:50:25;;;;;;;3.07;3.07;;;21.50;79.00;;;;;;5019743;28;20504;-60
2022/11/17 02:52:52;;;;;;;3.10;3.10;;;21.50;79.10;;;;;;5026391;28;20450;-60
2022/11/17 02:55:19;;;;;;;3.50;3.40;;;21.50;79.20;;;;;;5025965;28;20503;-59
2022/11/17 02:57:48;;;;;;;2.67;2.67;;;21.50;79.30;;;;;;5028558;28;20828;-60
2022/11/17 03:00:18;;;;;;;3.43;3.33;;;21.50;79.30;;;;;;5017993;28;20894;-60
2022/11/17 03:02:59;;;;;;;3.10;3.00;;;21.50;79.40;;;;;;5029416;28;20484;-59
2022/11/17 03:05:34;;;;;;;3.23;3.13;;;21.50;79.40;;;;;;5007740;28;20465;-56
2022/11/17 03:08:11;;;;;;;3.50;3.40;;;21.50;79.50;;;;;;5026355;28;21025;-58
2022/11/17 03:10:49;;;;;;;3.43;3.23;;;21.50;79.50;;;;;;5028409;28;20487;-60
2022/11/17 03:13:23;;;;;;;3.20;3.07;;;21.40;79.60;;;;;;5024758;28;20446;-58
2022/11/17 03:15:55;;;;;;;3.57;3.57;;;21.50;79.60;;;;;;5016199;28;20476;-59
2022/11/17 03:18:28;;;;;;;2.80;2.80;;;21.50;79.50;;;;;;5025635;28;20958;-60
2022/11/17 03:21:04;;;;;;;2.93;2.93;;;21.50;79.60;;;;;;5017191;28;20934;-59
2022/11/17 03:23:36;;;;;;;3.23;3.13;;;21.40;79.60;;;;;;5027179;28;20444;-59
2022/11/17 03:26:09;;;;;;;3.13;3.13;;;21.40;79.50;;;;;;5017991;28;20501;-58
2022/11/17 03:28:38;;;;;;;3.33;3.23;;;21.40;79.50;;;;;;5027524;28;20532;-61
2022/11/17 03:31:08;;;;;;;3.00;2.90;;;21.40;79.60;;;;;;5034499;28;20923;-60
2022/11/17 03:33:36;;;;;;;3.17;3.07;;;21.50;79.70;;;;;;5022895;28;20936;-60
2022/11/17 03:36:08;;;;;;;2.87;2.67;;;21.40;79.60;;;;;;5015542;28;20907;-60
2022/11/17 03:38:38;;;;;;;2.90;2.90;;;21.40;79.70;;;;;;5028735;28;20473;-61
2022/11/17 03:41:09;;;;;;;3.00;2.90;;;21.40;79.70;;;;;;5021669;28;20733;-57
2022/11/17 03:43:38;;;;;;;2.83;2.83;;;21.40;79.60;;;;;;5021225;28;20454;-57
2022/11/17 03:46:10;;;;;;;3.10;3.00;;;21.40;79.70;;;;;;5029905;28;20512;-60
2022/11/17 03:48:44;;;;;;;3.40;3.40;;;21.40;79.70;;;;;;5027382;28;20464;-59
2022/11/17 03:51:15;;;;;;;3.00;2.90;;;21.40;79.80;;;;;;5025235;28;20512;-57
2022/11/17 03:53:43;;;;;;;3.00;2.90;;;21.40;79.90;;;;;;5021248;28;20462;-59
2022/11/17 03:56:27;;;;;;;3.17;3.10;;;21.40;80.00;;;;;;5024900;28;20888;-60
2022/11/17 03:58:59;;;;;;;3.33;3.23;;;21.40;80.10;;;;;;5021177;28;20544;-59
2022/11/17 04:01:28;;;;;;;3.50;3.40;;;21.40;80.70;;;;;;5027241;28;20521;-56
2022/11/17 04:03:55;;;;;;;2.87;2.77;;;21.40;80.00;;;;;;5020005;28;20883;-59
2022/11/17 04:06:21;;;;;;;3.37;3.37;;;21.40;80.10;;;;;;5028522;28;20449;-59
2022/11/17 04:08:48;;;;;;;3.13;3.13;;;21.40;80.10;;;;;;5019104;28;20532;-60
2022/11/17 04:16:45;;;;;;;2.90;2.90;;;21.40;79.90;;;;;;5020183;28;20532;-60
2022/11/17 04:19:12;;;;;;;3.20;3.20;;;21.40;80.00;;;;;;5031628;28;20449;-57
2022/11/17 04:21:39;;;;;;;3.23;3.13;;;21.40;79.90;;;;;;5033645;28;20445;-57
2022/11/17 04:24:07;;;;;;;3.07;2.97;;;21.40;80.00;;;;;;5016449;28;20825;-58
2022/11/17 04:29:19;;;;;;;3.63;3.53;;;21.50;80.00;;;;;;5018049;28;20925;-59
2022/11/17 04:31:46;;;;;;;3.20;3.10;;;21.50;80.00;;;;;;5033466;28;21044;-57
2022/11/17 04:34:13;;;;;;;3.13;3.03;;;21.50;80.00;;;;;;5016543;28;20472;-59
2022/11/17 04:36:43;;;;;;;2.73;2.73;;;21.50;80.10;;;;;;5033282;28;20957;-58
2022/11/17 04:39:11;;;;;;;2.90;2.90;;;21.50;80.10;;;;;;5019152;28;20457;-57
2022/11/17 04:41:52;;;;;;;3.00;3.00;;;21.50;80.20;;;;;;5014640;28;20861;-60
2022/11/17 04:44:23;;;;;;;3.00;3.00;;;21.50;80.20;;;;;;5022934;28;20497;-59
2022/11/17 04:46:50;;;;;;;3.00;3.00;;;21.50;80.30;;;;;;5013325;28;20484;-59
2022/11/17 04:49:19;;;;;;;2.87;2.87;;;21.50;80.90;;;;;;5027494;28;20556;-57
2022/11/17 04:51:46;;;;;;;3.00;3.00;;;21.50;80.20;;;;;;5033033;28;20481;-57
2022/11/17 04:54:15;;;;;;;3.10;3.00;;;21.50;80.10;;;;;;5014845;28;20469;-58
2022/11/17 04:56:42;;;;;;;3.20;3.20;;;21.50;80.20;;;;;;5026134;28;20570;-58
2022/11/17 04:59:09;;;;;;;3.33;3.23;;;21.50;80.10;;;;;;5015774;28;20472;-59
2022/11/17 05:01:38;;;;;;;3.40;3.30;;;21.50;80.10;;;;;;5014265;28;20485;-59
2022/11/17 05:04:06;;;;;;;3.37;3.37;;;21.50;80.10;;;;;;5028309;28;20470;-61
2022/11/17 05:06:34;;;;;;;3.63;3.43;;;21.50;80.10;;;;;;5013940;28;20481;-60
2022/11/17 05:09:05;;;;;;;3.20;3.10;;;21.50;80.10;;;;;;5029869;28;20528;-58
2022/11/17 05:14:17;;;;;;;3.30;3.20;;;21.60;80.20;;;;;;5015867;28;20592;-59
2022/11/17 05:19:32;;;;;;;3.70;3.63;;;21.50;80.20;;;;;;4997905;28;20444;-61
2022/11/17 05:22:00;;;;;;;3.10;3.00;;;21.50;80.20;;;;;;5010658;28;20437;-59
2022/11/17 05:24:26;;;;;;;3.20;3.10;;;21.50;80.10;;;;;;5019972;28;20545;-60
2022/11/17 05:26:53;;;;;;;3.40;3.30;;;21.50;80.20;;;;;;5012618;28;20438;-60
2022/11/17 05:29:22;;;;;;;3.07;3.07;;;21.50;80.20;;;;;;5020821;28;20446;-59
2022/11/17 05:31:50;;;;;;;3.27;3.17;;;21.50;80.20;;;;;;5027142;28;20486;-57
2022/11/17 05:34:17;;;;;;;3.10;3.10;;;21.60;80.40;;;;;;5013518;28;20492;-59
2022/11/17 05:36:45;;;;;;;3.80;3.70;;;21.50;80.10;;;;;;5012385;28;20446;-57
2022/11/17 05:39:12;;;;;;;3.40;3.30;;;21.60;80.20;;;;;;5030911;28;20445;-59
2022/11/17 05:41:40;;;;;;;3.50;3.47;;;21.60;80.10;;;;;;5032445;28;20445;-60
2022/11/17 05:44:07;;;;;;;3.00;3.00;;;21.60;80.10;;;;;;5018325;28;20481;-60
2022/11/17 05:46:34;;;;;;;3.20;3.20;;;21.60;80.10;;;;;;5063132;22;20927;-59
2022/11/17 05:49:03;;;;;;;3.10;3.10;;;21.60;80.10;;;;;;5050029;28;20441;-60
2022/11/17 05:51:32;;;;;;;3.30;3.30;;;21.60;80.10;;;;;;5058222;28;20563;-61
2022/11/17 05:54:00;;;;;;;3.37;3.27;;;21.60;80.20;;;;;;5038350;28;20809;-60
2022/11/17 05:56:38;;;;;;;3.30;3.30;;;21.60;80.30;;;;;;5034432;28;20496;-60
2022/11/17 05:59:20;;;;;;;4.43;4.33;;;21.60;80.30;;;;;;5037820;28;20525;-62
2022/11/17 06:01:55;;;;;;;4.70;4.60;;;21.60;80.30;;;;;;5035199;28;21030;-51
2022/11/17 06:04:23;;;;;;;4.77;4.57;;;21.60;80.30;;;;;;5035758;28;20477;-53
2022/11/17 06:06:52;;;;;;;4.10;4.10;;;21.60;80.40;;;;;;5034718;28;20441;-54
2022/11/17 06:09:19;;;;;;;4.90;4.80;;;21.60;80.40;;;;;;5034039;28;20962;-54
2022/11/17 06:11:46;;;;;;;4.57;4.47;;;21.70;80.20;;;;;;5033515;28;20508;-53
2022/11/17 06:14:14;;;;;;;4.23;4.13;;;21.70;80.00;;;;;;5031183;28;20814;-56
2022/11/17 06:16:46;;;;;;;4.13;3.67;;;21.70;80.10;;;;;;5031967;28;20468;-57
2022/11/17 06:19:17;;;;;;;3.63;3.50;;;21.70;80.40;;;;;;5033480;28;20807;-50
2022/11/17 06:21:46;;;;;;;4.10;4.00;;;21.70;80.60;;;;;;5034664;28;20843;-55
2022/11/17 06:24:13;;;;;;;4.20;4.00;;;21.70;80.40;;;;;;5035504;28;20507;-59
2022/11/17 06:26:42;;;;;;;4.07;4.00;;;21.70;80.50;;;;;;5033365;28;20461;-58
2022/11/17 06:29:11;;;;;;;3.57;3.57;;;21.70;80.40;;;;;;5032386;28;20493;-63
2022/11/17 06:31:40;;;;;;;3.80;3.70;;;21.70;80.40;;;;;;5034774;28;20484;-59
2022/11/17 06:34:08;;;;;;;4.13;3.90;;;21.70;80.40;;;;;;5034300;28;20446;-62
2022/11/17 06:36:36;;;;;;;3.60;3.60;;;21.70;80.30;;;;;;5031694;28;20473;-62
2022/11/17 06:39:04;;;;;;;3.80;3.80;;;21.70;80.40;;;;;;5032260;28;20942;-60
2022/11/17 06:41:32;;;;;;;3.70;3.60;;;21.70;80.40;;;;;;5033214;28;20449;-60
2022/11/17 06:43:59;;;;;;;3.80;3.70;;;21.70;80.30;;;;;;5034904;28;20456;-61
2022/11/17 06:46:36;;;;;;;4.20;4.10;;;21.70;80.40;;;;;;5034531;28;20477;-61
2022/11/17 06:49:05;;;;;;;4.43;4.33;;;21.70;80.40;;;;;;5035300;28;20498;-59
2022/11/17 06:51:33;;;;;;;3.80;3.70;;;21.70;80.40;;;;;;5033674;28;20476;-62
2022/11/17 06:54:00;;;;;;;3.63;3.50;;;21.70;80.40;;;;;;5032565;28;20506;-63
2022/11/17 06:56:29;;;;;;;3.60;3.60;;;21.70;80.30;;;;;;5034629;28;20471;-62
2022/11/17 06:58:57;;;;;;;3.80;3.70;;;21.70;80.30;;;;;;5033042;28;20797;-63
2022/11/17 07:01:24;;;;;;;4.10;4.00;;;21.70;80.30;;;;;;5032217;28;20441;-60
2022/11/17 07:03:51;;;;;;;3.93;3.83;;;21.70;80.30;;;;;;5031464;28;20452;-62
2022/11/17 07:06:18;;;;;;;3.67;3.67;;;21.70;80.30;;;;;;5032231;28;20553;-58
2022/11/17 07:08:45;;;;;;;3.67;3.67;;;21.70;80.30;;;;;;5034498;28;20445;-63
2022/11/17 07:11:16;;;;;;;3.53;3.53;;;21.70;80.30;;;;;;5035499;28;20508;-61
2022/11/17 07:13:44;;;;;;;4.27;4.10;;;21.80;80.30;;;;;;5036036;28;20449;-62
2022/11/17 07:16:14;;;;;;;3.87;3.87;;;21.70;80.00;;;;;;5033981;28;20473;-63
2022/11/17 07:18:42;;;;;;;3.90;3.80;;;21.80;80.00;;;;;;5033795;28;20441;-63
2022/11/17 07:21:11;;;;;;;4.30;4.20;;;21.80;80.00;;;;;;5033024;28;20479;-62
2022/11/17 07:23:39;;;;;;;4.00;3.90;;;21.80;79.80;;;;;;5032067;28;20480;-62
2022/11/17 07:26:07;;;;;;;4.40;4.30;;;21.80;79.80;;;;;;5033798;28;20564;-62
2022/11/17 07:28:35;;;;;;;4.20;4.10;;;21.80;79.80;;;;;;5036227;28;20451;-61
2022/11/17 07:31:05;;;;;;;4.20;4.10;;;21.90;79.80;;;;;;5037611;28;20488;-63
2022/11/17 07:33:33;;;;;;;3.70;3.60;;;21.80;79.80;;;;;;5037639;28;20445;-63
2022/11/17 07:36:03;;;;;;;4.27;3.90;;;21.90;79.90;;;;;;5036849;28;20479;-61
2022/11/17 07:38:32;;;;;;;4.00;4.00;;;21.90;79.90;;;;;;5035970;28;20449;-63
2022/11/17 07:40:59;;;;;;;3.83;3.83;;;21.90;79.90;;;;;;5035587;28;20453;-63
2022/11/17 07:43:26;;;;;;;3.90;3.70;;;21.90;80.00;;;;;;5037029;28;20445;-62
2022/11/17 07:45:53;;;;;;;3.83;3.83;;;21.80;79.80;;;;;;5036535;28;20515;-62
2022/11/17 07:48:21;;;;;;;3.90;3.80;;;21.80;79.80;;;;;;5035930;28;20477;-62
2022/11/17 07:50:49;;;;;;;3.73;3.63;;;21.80;79.80;;;;;;5037267;28;20536;-62
2022/11/17 07:53:15;;;;;;;4.20;4.10;;;21.80;79.80;;;;;;5036341;28;20481;-62
2022/11/17 07:55:43;;;;;;;3.40;3.40;;;21.80;79.80;;;;;;5036009;28;20533;-55
2022/11/17 07:58:10;;;;;;;4.03;3.93;;;21.80;79.70;;;;;;5034997;28;20871;-62
2022/11/17 08:00:37;;;;;;;3.90;3.80;;;21.80;79.70;;;;;;5036310;28;20469;-57
2022/11/17 08:03:05;;;;;;;3.10;3.00;;;21.90;79.80;;;;;;5034124;28;20469;-58
2022/11/17 08:05:35;;;;;;;4.57;4.47;;;21.90;80.40;;;;;;5035010;28;20229;-59
2022/11/17 08:08:02;;;;;;;4.40;4.30;;;22.00;80.90;;;;;;5033761;28;20535;-59
2022/11/17 08:10:30;;;;;;;4.50;4.40;;;22.10;79.50;;;;;;5014310;28;20508;-61
2022/11/17 08:12:58;;;;;;;6.87;5.80;;;22.20;79.20;;;;;;5014210;28;20504;-60
2022/11/17 08:15:25;;;;;;;4.30;4.20;;;22.30;78.80;;;;;;5014178;28;20470;-61
2022/11/17 08:17:53;;;;;;;4.73;4.63;;;22.30;77.90;;;;;;5014111;28;20442;-60
2022/11/17 08:20:20;;;;;;;4.57;4.47;;;22.30;77.70;;;;;;5014117;28;20514;-63
2022/11/17 08:22:49;;;;;;;4.60;4.50;;;22.50;77.80;;;;;;5019896;28;20448;-59
2022/11/17 08:25:16;;;;;;;4.50;4.40;;;22.60;77.50;;;;;;5034910;28;20905;-62
2022/11/17 08:27:43;;;;;;;4.33;4.30;;;22.70;77.10;;;;;;5033708;28;20528;-59
2022/11/17 08:30:11;;;;;;;4.50;4.40;;;22.80;77.40;;;;;;5033692;28;20449;-59
2022/11/17 08:32:37;;;;;;;4.40;4.30;;;22.90;77.30;;;;;;5033628;28;20909;-58
2022/11/17 08:35:06;;;;;;;4.73;4.60;;;22.90;76.10;;;;;;5033448;28;20543;-62
2022/11/17 08:37:33;;;;;;;4.73;4.53;;;22.90;75.90;;;;;;5032177;28;20524;-60
2022/11/17 08:40:01;;;;;;;4.97;4.70;;;22.90;76.00;;;;;;5033507;28;20453;-61
2022/11/17 08:42:28;;;;;;;4.50;4.40;;;22.90;75.50;;;;;;5033339;28;21009;-59
2022/11/17 08:44:55;;;;;;;3.90;3.90;;;23.00;75.20;;;;;;5032999;28;20531;-62
2022/11/17 08:47:21;;;;;;;4.37;4.17;;;23.00;75.10;;;;;;5033262;28;20536;-62
2022/11/17 08:49:48;;;;;;;3.97;3.87;;;23.00;75.00;;;;;;5033315;28;20441;-60
2022/11/17 08:52:15;;;;;;;4.27;4.13;;;23.00;74.70;;;;;;5033150;28;20487;-62
2022/11/17 08:54:42;;;;;;;3.73;3.73;;;23.00;74.50;;;;;;5033246;28;20871;-59
2022/11/17 08:57:10;;;;;;;3.90;3.73;;;23.10;74.50;;;;;;5033137;28;20451;-61
2022/11/17 08:59:37;;;;;;;3.80;3.80;;;23.10;74.30;;;;;;5032959;28;20449;-61
2022/11/17 09:02:05;;;;;;;3.90;3.80;;;23.10;74.10;;;;;;5033328;28;20473;-60
2022/11/17 09:04:32;;;;;;;4.57;4.40;;;23.10;74.30;;;;;;5033008;28;20468;-59
2022/11/17 09:06:59;;;;;;;4.50;4.40;;;23.10;74.70;;;;;;5032780;28;20540;-62
2022/11/17 09:09:26;;;;;;;4.33;4.23;;;23.20;74.00;;;;;;5032776;28;20453;-62
2022/11/17 09:11:52;;;;;;;4.07;3.90;;;23.20;73.80;;;;;;5032466;28;20889;-61
2022/11/17 09:14:21;;;;;;;4.13;4.03;;;23.20;73.70;;;;;;5032228;28;20503;-60
2022/11/17 09:16:48;;;;;;;4.20;4.10;;;23.20;73.80;;;;;;5032575;28;20532;-62
2022/11/17 09:19:15;;;;;;;4.00;4.00;;;23.30;74.50;;;;;;5032543;28;20445;-62
2022/11/17 09:21:42;;;;;;;4.40;4.30;;;23.30;73.80;;;;;;5032771;28;20547;-63
2022/11/17 09:24:09;;;;;;;3.90;3.80;;;23.30;73.40;;;;;;5032587;28;20448;-63
2022/11/17 09:26:39;;;;;;;3.90;3.80;;;23.30;73.50;;;;;;5032347;28;20480;-61
2022/11/17 09:29:07;;;;;;;3.83;3.80;;;23.40;73.30;;;;;;5032322;28;20453;-59
2022/11/17 09:31:35;;;;;;;4.20;4.10;;;23.40;74.00;;;;;;5032516;28;20625;-63
2022/11/17 09:34:02;;;;;;;4.00;3.90;;;23.40;73.30;;;;;;5032525;28;20994;-62
2022/11/17 09:36:29;;;;;;;4.00;4.00;;;23.50;73.20;;;;;;5032014;28;20488;-62
2022/11/17 09:38:56;;;;;;;4.40;4.30;;;23.50;72.50;;;;;;5032407;28;20437;-61
2022/11/17 09:41:26;;;;;;;4.40;4.30;;;23.40;72.10;;;;;;5032448;28;20455;-63
2022/11/17 09:44:11;;;;;;;4.27;4.13;;;23.40;78.40;;;;;;5031708;28;20521;-62
2022/11/17 09:46:52;;;;;;;3.80;3.73;;;23.40;73.90;;;;;;5032330;28;20480;-66
2022/11/17 09:49:39;;;;;;;4.30;4.20;;;23.40;73.50;;;;;;5032106;28;20880;-63
2022/11/17 09:52:17;;;;;;;4.57;4.37;;;23.40;73.00;;;;;;5031631;28;20488;-63
2022/11/17 09:54:49;;;;;;;4.10;4.00;;;23.40;72.70;;;;;;5032858;28;20539;-64
2022/11/17 09:57:23;;;;;;;4.30;4.10;;;23.40;72.70;;;;;;5031974;28;20533;-65
2022/11/17 10:00:03;;;;;;;3.93;3.93;;;23.50;72.60;;;;;;5032187;28;20466;-64
2022/11/17 10:02:32;;;;;;;3.87;3.87;;;23.50;72.50;;;;;;5031730;28;20934;-64
2022/11/17 10:04:59;;;;;;;4.00;3.90;;;23.50;72.30;;;;;;5031937;28;20499;-64
2022/11/17 10:07:27;;;;;;;3.73;3.73;;;23.50;72.20;;;;;;5031668;28;20463;-65
2022/11/17 10:09:55;;;;;;;4.43;4.33;;;23.50;72.20;;;;;;5031834;28;20539;-63
2022/11/17 10:12:25;;;;;;;3.90;3.90;;;23.60;73.70;;;;;;5031865;28;20630;-62
2022/11/17 10:14:52;;;;;;;4.20;4.10;;;23.60;72.50;;;;;;5032208;28;20800;-62
2022/11/17 10:17:19;;;;;;;3.90;3.80;;;23.60;71.90;;;;;;5031462;28;20481;-62
2022/11/17 10:19:47;;;;;;;4.00;3.90;;;23.60;71.90;;;;;;5040938;28;20475;-64
2022/11/17 10:22:25;;;;;;;4.30;4.20;;;23.60;71.70;;;;;;5031789;28;20442;-61
2022/11/17 10:24:56;;;;;;;4.40;4.30;;;23.60;71.50;;;;;;5031796;28;20547;-64
2022/11/17 10:27:25;;;;;;;3.93;3.83;;;23.70;71.40;;;;;;5031544;28;20863;-63
2022/11/17 10:30:00;;;;;;;4.10;4.00;;;23.70;71.30;;;;;;5031944;28;20528;-62
2022/11/17 10:32:28;;;;;;;4.37;4.27;;;23.60;71.10;;;;;;5033744;28;20571;-64
2022/11/17 10:35:14;;;;;;;4.30;4.20;;;23.70;71.20;;;;;;5033256;28;20547;-60
2022/11/17 10:37:45;;;;;;;4.00;4.00;;;23.70;71.10;;;;;;5034445;28;20445;-61
2022/11/17 10:40:18;;;;;;;3.77;3.77;;;23.70;71.20;;;;;;5036045;28;20448;-61
2022/11/17 10:42:58;;;;;;;4.03;3.93;;;23.70;71.20;;;;;;5039192;28;20480;-59
2022/11/17 10:45:25;;;;;;;3.80;3.70;;;23.70;71.10;;;;;;5036717;28;20563;-60
2022/11/17 10:47:52;;;;;;;4.33;4.23;;;23.70;71.10;;;;;;5035658;28;20540;-60
2022/11/17 10:50:23;;;;;;;3.93;3.93;;;23.70;71.00;;;;;;5034833;28;20988;-60
2022/11/17 10:52:51;;;;;;;4.33;4.13;;;23.70;70.90;;;;;;5035050;28;20561;-62
2022/11/17 10:55:21;;;;;;;3.87;3.87;;;23.80;70.90;;;;;;5036034;28;20500;-58
2022/11/17 10:57:51;;;;;;;4.40;4.30;;;23.80;70.80;;;;;;5034829;28;20481;-60
2022/11/17 11:00:31;;;;;;;3.83;3.73;;;23.80;70.80;;;;;;5034370;28;20551;-61
2022/11/17 11:03:16;;;;;;;3.90;3.90;;;23.80;70.70;;;;;;5039046;28;20484;-59
2022/11/17 11:06:23;;;;;;;4.20;4.10;;;23.80;70.60;;;;;;5042798;28;20474;-60
2022/11/17 11:08:54;;;;;;;4.20;4.10;;;23.80;70.60;;;;;;5000393;28;21000;-61
2022/11/17 11:11:43;;;;;;;4.10;4.00;;;23.80;70.50;;;;;;5032521;28;20528;-58
2022/11/17 11:14:18;;;;;;;4.37;4.27;;;23.80;70.50;;;;;;5037735;28;20527;-62
2022/11/17 11:16:47;;;;;;;4.20;4.10;;;23.80;71.20;;;;;;5038539;28;20503;-63
2022/11/17 11:19:17;;;;;;;4.97;4.67;;;23.80;70.40;;;;;;5036330;28;20532;-62
2022/11/17 11:22:02;;;;;;;4.70;4.60;;;23.90;72.50;;;;;;5039498;28;20448;-65
2022/11/17 11:24:38;;;;;;;4.10;4.03;;;23.80;70.70;;;;;;5042092;28;20444;-61
2022/11/17 11:27:21;;;;;;;4.47;4.37;;;23.80;70.40;;;;;;5040271;28;20487;-61
2022/11/17 11:29:59;;;;;;;4.17;4.07;;;23.80;70.50;;;;;;5037152;28;20495;-60
2022/11/17 11:32:38;;;;;;;4.83;4.73;;;23.90;70.60;;;;;;5036404;28;20627;-61
2022/11/17 11:35:31;;;;;;;4.20;4.10;;;23.80;70.30;;;;;;5034872;28;20540;-56
2022/11/17 11:38:11;;;;;;;3.87;3.87;;;23.80;70.30;;;;;;5038184;28;20449;-61
2022/11/17 11:40:40;;;;;;;4.20;4.10;;;23.80;71.10;;;;;;5036459;28;20527;-64
2022/11/17 11:43:24;;;;;;;4.10;4.10;;;23.80;70.30;;;;;;5036086;28;20473;-62
2022/11/17 11:45:59;;;;;;;4.23;4.17;;;23.80;70.30;;;;;;5036441;28;20556;-60
2022/11/17 11:48:30;;;;;;;4.20;4.10;;;23.80;70.20;;;;;;5034572;28;20449;-55
2022/11/17 11:50:58;;;;;;;4.00;3.93;;;23.80;70.90;;;;;;5034318;28;20488;-58
2022/11/17 11:53:32;;;;;;;4.30;4.20;;;23.80;70.20;;;;;;5034431;28;20485;-58
2022/11/17 11:56:10;;;;;;;3.90;3.80;;;23.80;70.30;;;;;;5034425;28;20464;-61
2022/11/17 11:58:43;;;;;;;3.90;3.80;;;23.80;70.30;;;;;;5033832;28;20525;-60
2022/11/17 12:01:12;;;;;;;3.57;3.57;;;23.80;70.40;;;;;;5034399;28;20449;-58
2022/11/17 12:03:46;;;;;;;3.50;3.50;;;23.80;70.30;;;;;;5034270;28;20751;-55
2022/11/17 12:09:40;;;;;;;3.80;3.70;;;23.80;70.20;;;;;;5034467;28;20429;-54
2022/11/17 12:12:12;;;;;;;4.20;4.10;;;23.70;70.80;;;;;;5034050;28;20531;-59
2022/11/17 12:14:40;;;;;;;4.03;3.93;;;23.70;70.20;;;;;;5033864;28;20524;-57
2022/11/17 12:17:22;;;;;;;3.60;3.50;;;23.70;70.90;;;;;;5033903;28;20437;-54
2022/11/17 12:19:55;;;;;;;3.73;3.73;;;23.80;73.00;;;;;;5034241;28;20460;-56
2022/11/17 12:23:01;;;;;;;3.63;3.53;;;23.80;71.60;;;;;;5033865;28;20451;-52
2022/11/17 12:25:33;;;;;;;3.47;3.40;;;23.80;70.90;;;;;;5026144;28;20507;-51
2022/11/17 12:28:26;;;;;;;3.70;3.70;;;23.70;70.50;;;;;;5033683;28;20875;-59
2022/11/17 12:30:55;;;;;;;4.10;3.90;;;23.70;70.50;;;;;;5033673;28;20475;-57
2022/11/17 12:33:42;;;;;;;3.50;3.50;;;23.70;70.50;;;;;;5033845;28;20571;-55
2022/11/17 12:36:26;;;;;;;4.43;4.43;;;23.70;70.70;;;;;;5033349;28;20515;-58
2022/11/17 12:38:54;;;;;;;4.40;4.40;;;23.70;70.70;;;;;;5033798;28;20454;-59
2022/11/17 12:41:58;;;;;;;4.40;4.30;;;23.70;70.80;;;;;;5033166;28;20484;-54
2022/11/17 12:44:55;;;;;;;4.17;4.07;;;23.70;70.90;;;;;;5013575;28;20903;-54
2022/11/17 12:47:23;;;;;;;4.40;4.20;;;23.70;70.90;;;;;;5013677;28;20482;-57
2022/11/17 12:50:18;;;;;;;3.50;3.50;;;23.70;71.10;;;;;;5013685;28;20452;-56
2022/11/17 12:53:07;;;;;;;3.50;3.50;;;23.60;71.10;;;;;;5013693;28;20450;-56
2022/11/17 12:55:51;;;;;;;3.70;3.70;;;23.60;71.20;;;;;;5013493;28;20993;-54
2022/11/17 12:58:26;;;;;;;3.97;3.87;;;23.60;71.40;;;;;;5013603;28;20450;-60
2022/11/17 13:01:07;;;;;;;3.90;3.80;;;23.60;72.20;;;;;;5032739;28;20453;-58
2022/11/17 13:03:41;;;;;;;3.77;3.70;;;23.50;73.50;;;;;;5033148;28;20449;-55
2022/11/17 13:06:10;;;;;;;4.27;4.17;;;23.50;72.90;;;;;;5032554;28;20568;-61
2022/11/17 13:08:37;;;;;;;3.83;3.73;;;23.50;72.70;;;;;;5033052;28;20453;-57
2022/11/17 13:11:10;;;;;;;4.07;3.93;;;23.50;72.20;;;;;;5033011;28;20976;-57
2022/11/17 13:13:37;;;;;;;3.43;3.43;;;23.50;73.00;;;;;;5032785;28;20476;-53
2022/11/17 13:16:12;;;;;;;3.63;3.53;;;23.60;73.70;;;;;;5032798;28;20468;-56
2022/11/17 13:18:41;;;;;;;4.13;3.93;;;23.70;72.70;;;;;;5032613;28;20532;-56
2022/11/17 13:21:27;;;;;;;3.43;3.43;;;23.70;72.20;;;;;;5032345;28;20524;-51
2022/11/17 13:23:54;;;;;;;3.93;3.83;;;23.70;72.00;;;;;;5031999;28;20450;-53
2022/11/17 13:26:23;;;;;;;3.77;3.77;;;23.80;72.80;;;;;;5032560;28;21109;-53
2022/11/17 13:29:03;;;;;;;3.50;3.50;;;23.80;71.80;;;;;;5030702;28;20477;-58
2022/11/17 13:31:31;;;;;;;4.00;3.90;;;23.80;71.70;;;;;;5028305;28;20448;-64
2022/11/17 13:34:06;;;;;;;4.03;3.93;;;23.80;71.50;;;;;;5032460;28;20484;-56
2022/11/17 13:36:34;;;;;;;3.43;3.43;;;23.90;71.40;;;;;;5032192;28;20496;-61